sensor_id;sensor_type;location;lat;lon;timestamp;P1;durP1;ratioP1;P2;durP2;ratioP2
60612;SDS011;46443;59.792;17.626;2022-09-09T00:00:47;4.20;;;2.40;;
60612;SDS011;46443;59.792;17.626;2022-09-09T00:03:17;2.93;;;2.00;;
60612;SDS011;46443;59.792;17.626;2022-09-09T00:08:14;3.67;;;2.07;;
60612;SDS011;46443;59.792;17.626;2022-09-09T00:10:43;3.60;;;2.23;;
60612;SDS011;46443;59.792;17.626;2022-09-09T00:21:07;3.83;;;2.27;;
60612;SDS011;46443;59.792;17.626;2022-09-09T00:23:34;3.60;;;2.57;;
60612;SDS011;46443;59.792;17.626;2022-09-09T00:28:55;3.57;;;2.20;;
60612;SDS011;46443;59.792;17.626;2022-09-09T00:31:25;3.33;;;2.27;;
60612;SDS011;46443;59.792;17.626;2022-09-09T00:33:52;3.00;;;2.00;;
60612;SDS011;46443;59.792;17.626;2022-09-09T00:36:20;4.47;;;2.43;;
60612;SDS011;46443;59.792;17.626;2022-09-09T00:38:57;3.57;;;2.27;;
60612;SDS011;46443;59.792;17.626;2022-09-09T00:44:06;3.97;;;2.30;;
60612;SDS011;46443;59.792;17.626;2022-09-09T00:46:41;3.33;;;2.07;;
60612;SDS011;46443;59.792;17.626;2022-09-09T00:49:26;4.00;;;2.60;;
60612;SDS011;46443;59.792;17.626;2022-09-09T00:59:44;3.43;;;2.27;;
60612;SDS011;46443;59.792;17.626;2022-09-09T01:02:13;3.00;;;2.00;;
60612;SDS011;46443;59.792;17.626;2022-09-09T01:04:41;3.40;;;2.20;;
60612;SDS011;46443;59.792;17.626;2022-09-09T01:07:25;3.57;;;2.30;;
60612;SDS011;46443;59.792;17.626;2022-09-09T01:09:54;3.57;;;2.07;;
60612;SDS011;46443;59.792;17.626;2022-09-09T01:12:54;4.53;;;2.17;;
60612;SDS011;46443;59.792;17.626;2022-09-09T01:15:21;3.40;;;2.07;;
60612;SDS011;46443;59.792;17.626;2022-09-09T01:20:17;2.93;;;1.90;;
60612;SDS011;46443;59.792;17.626;2022-09-09T01:22:57;3.83;;;2.07;;
60612;SDS011;46443;59.792;17.626;2022-09-09T01:28:12;3.43;;;2.10;;
60612;SDS011;46443;59.792;17.626;2022-09-09T01:30:40;3.97;;;2.10;;
60612;SDS011;46443;59.792;17.626;2022-09-09T01:33:07;2.93;;;2.00;;
60612;SDS011;46443;59.792;17.626;2022-09-09T01:38:11;4.50;;;2.30;;
60612;SDS011;46443;59.792;17.626;2022-09-09T01:40:37;4.37;;;2.20;;
60612;SDS011;46443;59.792;17.626;2022-09-09T01:43:04;3.30;;;2.20;;
60612;SDS011;46443;59.792;17.626;2022-09-09T01:45:30;3.60;;;2.00;;
60612;SDS011;46443;59.792;17.626;2022-09-09T01:47:56;3.30;;;2.10;;
60612;SDS011;46443;59.792;17.626;2022-09-09T01:50:23;3.13;;;2.10;;
60612;SDS011;46443;59.792;17.626;2022-09-09T01:52:50;2.63;;;1.80;;
60612;SDS011;46443;59.792;17.626;2022-09-09T01:55:19;3.40;;;2.10;;
60612;SDS011;46443;59.792;17.626;2022-09-09T02:00:32;3.73;;;2.13;;
60612;SDS011;46443;59.792;17.626;2022-09-09T02:03:00;3.30;;;2.17;;
60612;SDS011;46443;59.792;17.626;2022-09-09T02:05:35;4.30;;;2.27;;
60612;SDS011;46443;59.792;17.626;2022-09-09T02:08:09;3.23;;;2.10;;
60612;SDS011;46443;59.792;17.626;2022-09-09T02:13:11;3.30;;;2.10;;
60612;SDS011;46443;59.792;17.626;2022-09-09T02:15:52;3.07;;;2.03;;
60612;SDS011;46443;59.792;17.626;2022-09-09T02:18:27;3.60;;;2.17;;
60612;SDS011;46443;59.792;17.626;2022-09-09T02:20:54;3.43;;;2.17;;
60612;SDS011;46443;59.792;17.626;2022-09-09T02:23:21;3.40;;;2.50;;
60612;SDS011;46443;59.792;17.626;2022-09-09T02:25:47;3.23;;;1.83;;
60612;SDS011;46443;59.792;17.626;2022-09-09T02:28:16;3.47;;;2.17;;
60612;SDS011;46443;59.792;17.626;2022-09-09T02:30:44;3.10;;;2.10;;
60612;SDS011;46443;59.792;17.626;2022-09-09T02:33:12;3.00;;;2.20;;
60612;SDS011;46443;59.792;17.626;2022-09-09T02:35:39;3.53;;;1.97;;
60612;SDS011;46443;59.792;17.626;2022-09-09T02:38:08;3.43;;;2.30;;
60612;SDS011;46443;59.792;17.626;2022-09-09T02:40:35;3.10;;;1.90;;
60612;SDS011;46443;59.792;17.626;2022-09-09T02:43:01;3.50;;;2.03;;
60612;SDS011;46443;59.792;17.626;2022-09-09T02:45:31;3.60;;;2.07;;
60612;SDS011;46443;59.792;17.626;2022-09-09T02:48:08;3.97;;;2.00;;
60612;SDS011;46443;59.792;17.626;2022-09-09T02:50:37;3.10;;;2.00;;
60612;SDS011;46443;59.792;17.626;2022-09-09T02:55:38;4.67;;;2.20;;
60612;SDS011;46443;59.792;17.626;2022-09-09T02:58:05;2.90;;;2.03;;
60612;SDS011;46443;59.792;17.626;2022-09-09T03:00:33;3.50;;;2.20;;
60612;SDS011;46443;59.792;17.626;2022-09-09T03:03:01;2.43;;;1.83;;
60612;SDS011;46443;59.792;17.626;2022-09-09T03:05:27;3.60;;;2.20;;
60612;SDS011;46443;59.792;17.626;2022-09-09T03:07:53;4.03;;;2.20;;
60612;SDS011;46443;59.792;17.626;2022-09-09T03:10:19;3.40;;;2.20;;
60612;SDS011;46443;59.792;17.626;2022-09-09T03:12:45;3.70;;;2.10;;
60612;SDS011;46443;59.792;17.626;2022-09-09T03:15:11;4.33;;;2.30;;
60612;SDS011;46443;59.792;17.626;2022-09-09T03:17:39;5.10;;;2.00;;
60612;SDS011;46443;59.792;17.626;2022-09-09T03:20:06;4.03;;;1.83;;
60612;SDS011;46443;59.792;17.626;2022-09-09T03:22:33;3.90;;;1.97;;
60612;SDS011;46443;59.792;17.626;2022-09-09T03:24:59;3.40;;;2.00;;
60612;SDS011;46443;59.792;17.626;2022-09-09T03:27:25;2.77;;;1.97;;
60612;SDS011;46443;59.792;17.626;2022-09-09T03:29:51;3.10;;;2.00;;
60612;SDS011;46443;59.792;17.626;2022-09-09T03:32:17;3.10;;;2.00;;
60612;SDS011;46443;59.792;17.626;2022-09-09T03:34:44;2.90;;;1.90;;
60612;SDS011;46443;59.792;17.626;2022-09-09T03:37:10;2.60;;;1.97;;
60612;SDS011;46443;59.792;17.626;2022-09-09T03:39:36;2.87;;;2.00;;
60612;SDS011;46443;59.792;17.626;2022-09-09T03:42:03;3.13;;;1.90;;
60612;SDS011;46443;59.792;17.626;2022-09-09T03:44:29;2.70;;;1.90;;
60612;SDS011;46443;59.792;17.626;2022-09-09T03:46:55;3.27;;;1.90;;
60612;SDS011;46443;59.792;17.626;2022-09-09T03:49:21;2.87;;;2.03;;
60612;SDS011;46443;59.792;17.626;2022-09-09T03:51:49;3.80;;;2.20;;
60612;SDS011;46443;59.792;17.626;2022-09-09T03:54:15;3.97;;;2.20;;
60612;SDS011;46443;59.792;17.626;2022-09-09T03:56:41;3.17;;;2.17;;
60612;SDS011;46443;59.792;17.626;2022-09-09T03:59:07;2.80;;;1.90;;
60612;SDS011;46443;59.792;17.626;2022-09-09T04:01:33;2.67;;;1.77;;
60612;SDS011;46443;59.792;17.626;2022-09-09T04:03:59;3.37;;;2.00;;
60612;SDS011;46443;59.792;17.626;2022-09-09T04:06:27;3.27;;;2.00;;
60612;SDS011;46443;59.792;17.626;2022-09-09T04:08:54;3.17;;;2.00;;
60612;SDS011;46443;59.792;17.626;2022-09-09T04:11:21;2.90;;;1.87;;
60612;SDS011;46443;59.792;17.626;2022-09-09T04:13:47;3.43;;;2.07;;
60612;SDS011;46443;59.792;17.626;2022-09-09T04:16:14;3.37;;;2.07;;
60612;SDS011;46443;59.792;17.626;2022-09-09T04:18:40;3.63;;;2.00;;
60612;SDS011;46443;59.792;17.626;2022-09-09T04:21:06;3.33;;;1.90;;
60612;SDS011;46443;59.792;17.626;2022-09-09T04:23:33;3.33;;;2.10;;
60612;SDS011;46443;59.792;17.626;2022-09-09T04:26:00;2.33;;;1.80;;
60612;SDS011;46443;59.792;17.626;2022-09-09T04:28:27;3.23;;;1.97;;
60612;SDS011;46443;59.792;17.626;2022-09-09T04:30:54;3.30;;;1.90;;
60612;SDS011;46443;59.792;17.626;2022-09-09T04:33:23;2.93;;;1.97;;
60612;SDS011;46443;59.792;17.626;2022-09-09T04:35:51;3.28;;;2.08;;
60612;SDS011;46443;59.792;17.626;2022-09-09T04:38:20;3.05;;;1.83;;
60612;SDS011;46443;59.792;17.626;2022-09-09T04:40:48;2.60;;;1.80;;
60612;SDS011;46443;59.792;17.626;2022-09-09T04:43:14;4.03;;;2.20;;
60612;SDS011;46443;59.792;17.626;2022-09-09T04:45:41;3.57;;;2.27;;
60612;SDS011;46443;59.792;17.626;2022-09-09T04:48:08;2.87;;;2.00;;
60612;SDS011;46443;59.792;17.626;2022-09-09T04:50:37;3.08;;;1.85;;
60612;SDS011;46443;59.792;17.626;2022-09-09T04:53:03;2.43;;;1.80;;
60612;SDS011;46443;59.792;17.626;2022-09-09T04:55:30;4.07;;;2.07;;
60612;SDS011;46443;59.792;17.626;2022-09-09T04:57:56;2.60;;;1.93;;
60612;SDS011;46443;59.792;17.626;2022-09-09T05:00:22;3.13;;;2.00;;
60612;SDS011;46443;59.792;17.626;2022-09-09T05:02:48;2.90;;;2.00;;
60612;SDS011;46443;59.792;17.626;2022-09-09T05:05:14;4.93;;;2.07;;
60612;SDS011;46443;59.792;17.626;2022-09-09T05:07:41;3.23;;;1.90;;
60612;SDS011;46443;59.792;17.626;2022-09-09T05:10:08;2.70;;;1.90;;
60612;SDS011;46443;59.792;17.626;2022-09-09T05:12:35;2.80;;;2.00;;
60612;SDS011;46443;59.792;17.626;2022-09-09T05:15:01;2.27;;;1.73;;
60612;SDS011;46443;59.792;17.626;2022-09-09T05:17:27;3.77;;;1.80;;
60612;SDS011;46443;59.792;17.626;2022-09-09T05:19:53;4.37;;;2.10;;
60612;SDS011;46443;59.792;17.626;2022-09-09T05:22:20;2.10;;;1.80;;
60612;SDS011;46443;59.792;17.626;2022-09-09T05:24:48;4.03;;;2.30;;
60612;SDS011;46443;59.792;17.626;2022-09-09T05:27:16;3.27;;;1.87;;
60612;SDS011;46443;59.792;17.626;2022-09-09T05:29:43;3.43;;;2.00;;
60612;SDS011;46443;59.792;17.626;2022-09-09T05:32:09;3.60;;;2.00;;
60612;SDS011;46443;59.792;17.626;2022-09-09T05:34:35;2.70;;;1.90;;
60612;SDS011;46443;59.792;17.626;2022-09-09T05:37:02;3.50;;;2.00;;
60612;SDS011;46443;59.792;17.626;2022-09-09T05:39:29;3.57;;;1.87;;
60612;SDS011;46443;59.792;17.626;2022-09-09T05:41:55;2.40;;;1.80;;
60612;SDS011;46443;59.792;17.626;2022-09-09T05:44:22;2.63;;;1.87;;
60612;SDS011;46443;59.792;17.626;2022-09-09T05:46:52;3.37;;;1.70;;
60612;SDS011;46443;59.792;17.626;2022-09-09T05:49:19;2.43;;;1.67;;
60612;SDS011;46443;59.792;17.626;2022-09-09T05:51:46;3.13;;;1.90;;
60612;SDS011;46443;59.792;17.626;2022-09-09T05:54:13;2.93;;;1.70;;
60612;SDS011;46443;59.792;17.626;2022-09-09T05:56:40;2.47;;;1.80;;
60612;SDS011;46443;59.792;17.626;2022-09-09T05:59:06;4.63;;;1.97;;
60612;SDS011;46443;59.792;17.626;2022-09-09T06:01:33;2.43;;;1.70;;
60612;SDS011;46443;59.792;17.626;2022-09-09T06:03:59;2.47;;;1.77;;
60612;SDS011;46443;59.792;17.626;2022-09-09T06:06:26;1.77;;;1.63;;
60612;SDS011;46443;59.792;17.626;2022-09-09T06:08:53;3.33;;;1.93;;
60612;SDS011;46443;59.792;17.626;2022-09-09T06:11:27;2.93;;;2.00;;
60612;SDS011;46443;59.792;17.626;2022-09-09T06:13:55;2.83;;;1.87;;
60612;SDS011;46443;59.792;17.626;2022-09-09T06:16:23;2.50;;;1.80;;
60612;SDS011;46443;59.792;17.626;2022-09-09T06:18:49;2.07;;;1.63;;
60612;SDS011;46443;59.792;17.626;2022-09-09T06:21:17;2.93;;;1.80;;
60612;SDS011;46443;59.792;17.626;2022-09-09T06:23:43;2.37;;;1.60;;
60612;SDS011;46443;59.792;17.626;2022-09-09T06:26:19;2.13;;;1.70;;
60612;SDS011;46443;59.792;17.626;2022-09-09T06:28:47;3.07;;;1.60;;
60612;SDS011;46443;59.792;17.626;2022-09-09T06:31:13;1.80;;;1.57;;
60612;SDS011;46443;59.792;17.626;2022-09-09T06:33:42;2.50;;;2.03;;
60612;SDS011;46443;59.792;17.626;2022-09-09T06:36:13;4.00;;;1.93;;
60612;SDS011;46443;59.792;17.626;2022-09-09T06:38:40;1.93;;;1.60;;
60612;SDS011;46443;59.792;17.626;2022-09-09T06:41:07;4.47;;;1.67;;
60612;SDS011;46443;59.792;17.626;2022-09-09T06:43:33;2.60;;;1.80;;
60612;SDS011;46443;59.792;17.626;2022-09-09T06:46:01;1.97;;;1.40;;
60612;SDS011;46443;59.792;17.626;2022-09-09T06:48:27;3.97;;;1.80;;
60612;SDS011;46443;59.792;17.626;2022-09-09T06:51:00;1.90;;;1.47;;
60612;SDS011;46443;59.792;17.626;2022-09-09T06:53:27;2.73;;;1.47;;
60612;SDS011;46443;59.792;17.626;2022-09-09T06:55:53;1.93;;;1.40;;
60612;SDS011;46443;59.792;17.626;2022-09-09T06:58:19;2.00;;;1.53;;
60612;SDS011;46443;59.792;17.626;2022-09-09T07:00:47;3.20;;;1.70;;
60612;SDS011;46443;59.792;17.626;2022-09-09T07:03:13;2.90;;;1.70;;
60612;SDS011;46443;59.792;17.626;2022-09-09T07:05:39;1.73;;;1.40;;
60612;SDS011;46443;59.792;17.626;2022-09-09T07:08:05;2.33;;;1.60;;
60612;SDS011;46443;59.792;17.626;2022-09-09T07:10:31;2.27;;;1.60;;
60612;SDS011;46443;59.792;17.626;2022-09-09T07:12:59;1.50;;;1.30;;
60612;SDS011;46443;59.792;17.626;2022-09-09T07:15:26;5.03;;;1.60;;
60612;SDS011;46443;59.792;17.626;2022-09-09T07:17:52;2.07;;;1.60;;
60612;SDS011;46443;59.792;17.626;2022-09-09T07:20:18;3.17;;;1.80;;
60612;SDS011;46443;59.792;17.626;2022-09-09T07:22:45;2.20;;;1.37;;
60612;SDS011;46443;59.792;17.626;2022-09-09T07:25:11;3.17;;;1.50;;
60612;SDS011;46443;59.792;17.626;2022-09-09T07:27:37;2.73;;;1.60;;
60612;SDS011;46443;59.792;17.626;2022-09-09T07:30:03;1.90;;;1.40;;
60612;SDS011;46443;59.792;17.626;2022-09-09T07:32:29;1.77;;;1.27;;
60612;SDS011;46443;59.792;17.626;2022-09-09T07:34:55;1.93;;;1.50;;
60612;SDS011;46443;59.792;17.626;2022-09-09T07:37:23;1.50;;;1.30;;
60612;SDS011;46443;59.792;17.626;2022-09-09T07:39:49;2.83;;;1.60;;
60612;SDS011;46443;59.792;17.626;2022-09-09T07:42:16;2.33;;;1.53;;
60612;SDS011;46443;59.792;17.626;2022-09-09T07:44:42;2.43;;;1.50;;
60612;SDS011;46443;59.792;17.626;2022-09-09T07:47:08;1.30;;;1.20;;
60612;SDS011;46443;59.792;17.626;2022-09-09T07:49:34;3.00;;;1.57;;
60612;SDS011;46443;59.792;17.626;2022-09-09T07:52:00;1.43;;;1.30;;
60612;SDS011;46443;59.792;17.626;2022-09-09T07:54:26;1.57;;;1.20;;
60612;SDS011;46443;59.792;17.626;2022-09-09T07:56:52;1.43;;;1.30;;
60612;SDS011;46443;59.792;17.626;2022-09-09T07:59:18;3.03;;;1.13;;
60612;SDS011;46443;59.792;17.626;2022-09-09T08:01:46;2.33;;;1.50;;
60612;SDS011;46443;59.792;17.626;2022-09-09T08:04:13;1.90;;;1.40;;
60612;SDS011;46443;59.792;17.626;2022-09-09T08:06:41;1.50;;;1.40;;
60612;SDS011;46443;59.792;17.626;2022-09-09T08:09:08;2.23;;;1.30;;
60612;SDS011;46443;59.792;17.626;2022-09-09T08:11:34;1.47;;;1.10;;
60612;SDS011;46443;59.792;17.626;2022-09-09T08:14:01;2.03;;;1.27;;
60612;SDS011;46443;59.792;17.626;2022-09-09T08:16:28;2.00;;;1.40;;
60612;SDS011;46443;59.792;17.626;2022-09-09T08:18:55;1.63;;;1.20;;
60612;SDS011;46443;59.792;17.626;2022-09-09T08:21:31;1.73;;;1.20;;
60612;SDS011;46443;59.792;17.626;2022-09-09T08:23:58;1.43;;;1.03;;
60612;SDS011;46443;59.792;17.626;2022-09-09T08:26:35;1.70;;;1.17;;
60612;SDS011;46443;59.792;17.626;2022-09-09T08:29:02;2.00;;;1.30;;
60612;SDS011;46443;59.792;17.626;2022-09-09T08:31:30;1.20;;;1.07;;
60612;SDS011;46443;59.792;17.626;2022-09-09T08:33:56;1.23;;;0.93;;
60612;SDS011;46443;59.792;17.626;2022-09-09T08:36:24;1.13;;;1.03;;
60612;SDS011;46443;59.792;17.626;2022-09-09T08:38:51;1.20;;;1.10;;
60612;SDS011;46443;59.792;17.626;2022-09-09T08:46:52;2.20;;;1.30;;
60612;SDS011;46443;59.792;17.626;2022-09-09T08:51:52;1.20;;;1.10;;
60612;SDS011;46443;59.792;17.626;2022-09-09T08:54:20;2.90;;;1.20;;
60612;SDS011;46443;59.792;17.626;2022-09-09T08:56:46;3.83;;;1.27;;
60612;SDS011;46443;59.792;17.626;2022-09-09T08:59:13;1.77;;;1.20;;
60612;SDS011;46443;59.792;17.626;2022-09-09T09:06:54;2.95;;;1.45;;
60612;SDS011;46443;59.792;17.626;2022-09-09T09:11:58;1.35;;;1.05;;
60612;SDS011;46443;59.792;17.626;2022-09-09T09:14:29;2.23;;;1.30;;
60612;SDS011;46443;59.792;17.626;2022-09-09T09:19:34;3.00;;;1.40;;
60612;SDS011;46443;59.792;17.626;2022-09-09T09:24:41;2.43;;;1.20;;
60612;SDS011;46443;59.792;17.626;2022-09-09T09:27:15;1.30;;;1.20;;
60612;SDS011;46443;59.792;17.626;2022-09-09T09:29:42;1.80;;;1.20;;
60612;SDS011;46443;59.792;17.626;2022-09-09T09:32:13;1.90;;;0.90;;
60612;SDS011;46443;59.792;17.626;2022-09-09T09:34:40;2.60;;;1.20;;
60612;SDS011;46443;59.792;17.626;2022-09-09T09:37:11;2.37;;;1.30;;
60612;SDS011;46443;59.792;17.626;2022-09-09T09:39:39;1.83;;;1.13;;
60612;SDS011;46443;59.792;17.626;2022-09-09T09:42:12;1.43;;;1.20;;
60612;SDS011;46443;59.792;17.626;2022-09-09T09:44:39;1.60;;;1.10;;
60612;SDS011;46443;59.792;17.626;2022-09-09T09:47:06;3.37;;;1.07;;
60612;SDS011;46443;59.792;17.626;2022-09-09T09:49:33;1.33;;;1.20;;
60612;SDS011;46443;59.792;17.626;2022-09-09T09:52:02;1.37;;;0.90;;
60612;SDS011;46443;59.792;17.626;2022-09-09T09:54:33;1.20;;;1.10;;
60612;SDS011;46443;59.792;17.626;2022-09-09T09:57:08;1.63;;;1.00;;
60612;SDS011;46443;59.792;17.626;2022-09-09T09:59:35;3.00;;;1.20;;
60612;SDS011;46443;59.792;17.626;2022-09-09T10:02:15;1.33;;;1.00;;
60612;SDS011;46443;59.792;17.626;2022-09-09T10:04:41;1.80;;;1.20;;
60612;SDS011;46443;59.792;17.626;2022-09-09T10:07:11;1.67;;;1.27;;
60612;SDS011;46443;59.792;17.626;2022-09-09T10:09:37;1.50;;;1.13;;
60612;SDS011;46443;59.792;17.626;2022-09-09T10:12:18;4.27;;;1.30;;
60612;SDS011;46443;59.792;17.626;2022-09-09T10:28:31;1.20;;;0.90;;
60612;SDS011;46443;59.792;17.626;2022-09-09T10:31:06;2.53;;;1.57;;
60612;SDS011;46443;59.792;17.626;2022-09-09T10:33:50;1.13;;;1.00;;
60612;SDS011;46443;59.792;17.626;2022-09-09T10:36:18;2.15;;;1.20;;
60612;SDS011;46443;59.792;17.626;2022-09-09T10:38:45;3.37;;;1.10;;
60612;SDS011;46443;59.792;17.626;2022-09-09T10:41:16;1.90;;;1.33;;
60612;SDS011;46443;59.792;17.626;2022-09-09T10:51:33;2.03;;;1.30;;
60612;SDS011;46443;59.792;17.626;2022-09-09T10:54:06;1.58;;;1.20;;
60612;SDS011;46443;59.792;17.626;2022-09-09T10:56:35;1.57;;;1.20;;
60612;SDS011;46443;59.792;17.626;2022-09-09T10:59:09;1.57;;;1.20;;
60612;SDS011;46443;59.792;17.626;2022-09-09T11:01:39;1.83;;;1.20;;
60612;SDS011;46443;59.792;17.626;2022-09-09T11:04:20;1.57;;;1.20;;
60612;SDS011;46443;59.792;17.626;2022-09-09T11:06:48;2.22;;;1.30;;
60612;SDS011;46443;59.792;17.626;2022-09-09T11:09:18;1.23;;;1.13;;
60612;SDS011;46443;59.792;17.626;2022-09-09T11:11:54;2.20;;;1.20;;
60612;SDS011;46443;59.792;17.626;2022-09-09T11:16:51;1.60;;;1.17;;
60612;SDS011;46443;59.792;17.626;2022-09-09T11:19:34;1.40;;;1.10;;
60612;SDS011;46443;59.792;17.626;2022-09-09T11:22:01;1.23;;;1.10;;
60612;SDS011;46443;59.792;17.626;2022-09-09T11:24:36;1.57;;;1.10;;
60612;SDS011;46443;59.792;17.626;2022-09-09T11:27:16;1.60;;;1.20;;
60612;SDS011;46443;59.792;17.626;2022-09-09T11:42:35;2.30;;;1.23;;
60612;SDS011;46443;59.792;17.626;2022-09-09T11:47:37;2.53;;;1.20;;
60612;SDS011;46443;59.792;17.626;2022-09-09T11:50:10;1.60;;;1.50;;
60612;SDS011;46443;59.792;17.626;2022-09-09T11:53:03;2.72;;;1.30;;
60612;SDS011;46443;59.792;17.626;2022-09-09T11:55:30;2.03;;;1.30;;
60612;SDS011;46443;59.792;17.626;2022-09-09T11:57:58;3.30;;;1.58;;
60612;SDS011;46443;59.792;17.626;2022-09-09T12:00:38;1.83;;;1.40;;
60612;SDS011;46443;59.792;17.626;2022-09-09T12:03:05;1.40;;;1.27;;
60612;SDS011;46443;59.792;17.626;2022-09-09T12:05:39;2.97;;;1.33;;
60612;SDS011;46443;59.792;17.626;2022-09-09T12:08:06;4.33;;;1.40;;
60612;SDS011;46443;59.792;17.626;2022-09-09T12:10:52;3.17;;;1.30;;
60612;SDS011;46443;59.792;17.626;2022-09-09T12:13:19;2.53;;;1.40;;
60612;SDS011;46443;59.792;17.626;2022-09-09T12:15:56;2.00;;;1.30;;
60612;SDS011;46443;59.792;17.626;2022-09-09T12:23:40;1.87;;;1.40;;
60612;SDS011;46443;59.792;17.626;2022-09-09T12:29:02;2.57;;;1.30;;
60612;SDS011;46443;59.792;17.626;2022-09-09T12:31:32;1.67;;;1.25;;
60612;SDS011;46443;59.792;17.626;2022-09-09T12:35:02;2.63;;;1.25;;
60612;SDS011;46443;59.792;17.626;2022-09-09T12:36:58;3.53;;;1.50;;
60612;SDS011;46443;59.792;17.626;2022-09-09T12:39:28;1.70;;;1.43;;
60612;SDS011;46443;59.792;17.626;2022-09-09T12:41:56;1.73;;;1.30;;
60612;SDS011;46443;59.792;17.626;2022-09-09T12:44:23;2.40;;;1.30;;
60612;SDS011;46443;59.792;17.626;2022-09-09T12:46:50;1.70;;;1.30;;
60612;SDS011;46443;59.792;17.626;2022-09-09T12:52:01;2.43;;;1.30;;
60612;SDS011;46443;59.792;17.626;2022-09-09T12:54:27;3.17;;;1.20;;
60612;SDS011;46443;59.792;17.626;2022-09-09T12:56:53;2.30;;;1.20;;
60612;SDS011;46443;59.792;17.626;2022-09-09T12:59:24;1.93;;;1.10;;
60612;SDS011;46443;59.792;17.626;2022-09-09T13:01:57;1.93;;;1.33;;
60612;SDS011;46443;59.792;17.626;2022-09-09T13:04:23;2.83;;;1.37;;
60612;SDS011;46443;59.792;17.626;2022-09-09T13:06:49;1.33;;;1.10;;
60612;SDS011;46443;59.792;17.626;2022-09-09T13:09:17;4.03;;;1.50;;
60612;SDS011;46443;59.792;17.626;2022-09-09T13:11:45;2.70;;;1.30;;
60612;SDS011;46443;59.792;17.626;2022-09-09T13:14:19;2.00;;;1.23;;
60612;SDS011;46443;59.792;17.626;2022-09-09T13:16:58;3.20;;;1.47;;
60612;SDS011;46443;59.792;17.626;2022-09-09T13:19:24;1.20;;;1.10;;
60612;SDS011;46443;59.792;17.626;2022-09-09T13:21:52;3.43;;;1.40;;
60612;SDS011;46443;59.792;17.626;2022-09-09T13:24:32;2.57;;;1.50;;
60612;SDS011;46443;59.792;17.626;2022-09-09T13:26:59;2.28;;;1.27;;
60612;SDS011;46443;59.792;17.626;2022-09-09T13:29:27;1.63;;;1.30;;
60612;SDS011;46443;59.792;17.626;2022-09-09T13:31:53;3.77;;;1.40;;
60612;SDS011;46443;59.792;17.626;2022-09-09T13:34:26;1.63;;;1.40;;
60612;SDS011;46443;59.792;17.626;2022-09-09T13:36:53;1.40;;;1.30;;
60612;SDS011;46443;59.792;17.626;2022-09-09T13:39:21;1.50;;;1.40;;
60612;SDS011;46443;59.792;17.626;2022-09-09T13:41:48;2.00;;;1.30;;
60612;SDS011;46443;59.792;17.626;2022-09-09T13:44:17;2.50;;;1.20;;
60612;SDS011;46443;59.792;17.626;2022-09-09T13:46:45;2.23;;;1.40;;
60612;SDS011;46443;59.792;17.626;2022-09-09T13:51:41;3.83;;;1.50;;
60612;SDS011;46443;59.792;17.626;2022-09-09T13:54:11;2.90;;;1.50;;
60612;SDS011;46443;59.792;17.626;2022-09-09T13:56:38;2.03;;;1.40;;
60612;SDS011;46443;59.792;17.626;2022-09-09T13:59:06;2.43;;;1.53;;
60612;SDS011;46443;59.792;17.626;2022-09-09T14:01:33;2.00;;;1.50;;
60612;SDS011;46443;59.792;17.626;2022-09-09T14:04:00;2.07;;;1.57;;
60612;SDS011;46443;59.792;17.626;2022-09-09T14:06:26;2.47;;;1.47;;
60612;SDS011;46443;59.792;17.626;2022-09-09T14:08:52;2.60;;;1.53;;
60612;SDS011;46443;59.792;17.626;2022-09-09T14:11:20;2.73;;;1.60;;
60612;SDS011;46443;59.792;17.626;2022-09-09T14:13:46;2.07;;;1.57;;
60612;SDS011;46443;59.792;17.626;2022-09-09T14:16:15;1.57;;;1.33;;
60612;SDS011;46443;59.792;17.626;2022-09-09T14:18:41;2.73;;;1.60;;
60612;SDS011;46443;59.792;17.626;2022-09-09T14:21:08;2.47;;;1.53;;
60612;SDS011;46443;59.792;17.626;2022-09-09T14:23:34;1.87;;;1.40;;
60612;SDS011;46443;59.792;17.626;2022-09-09T14:26:00;2.50;;;1.57;;
60612;SDS011;46443;59.792;17.626;2022-09-09T14:28:26;2.20;;;1.40;;
60612;SDS011;46443;59.792;17.626;2022-09-09T14:30:53;2.83;;;1.63;;
60612;SDS011;46443;59.792;17.626;2022-09-09T14:33:19;3.60;;;1.70;;
60612;SDS011;46443;59.792;17.626;2022-09-09T14:35:46;1.57;;;1.43;;
60612;SDS011;46443;59.792;17.626;2022-09-09T14:38:12;2.10;;;1.40;;
60612;SDS011;46443;59.792;17.626;2022-09-09T14:40:39;2.20;;;1.37;;
60612;SDS011;46443;59.792;17.626;2022-09-09T14:43:05;2.23;;;1.50;;
60612;SDS011;46443;59.792;17.626;2022-09-09T14:45:31;2.57;;;1.70;;
60612;SDS011;46443;59.792;17.626;2022-09-09T14:47:58;3.33;;;1.40;;
60612;SDS011;46443;59.792;17.626;2022-09-09T14:50:24;2.03;;;1.57;;
60612;SDS011;46443;59.792;17.626;2022-09-09T14:52:50;3.83;;;1.70;;
60612;SDS011;46443;59.792;17.626;2022-09-09T14:55:16;4.37;;;1.53;;
60612;SDS011;46443;59.792;17.626;2022-09-09T14:57:42;2.93;;;1.40;;
60612;SDS011;46443;59.792;17.626;2022-09-09T15:00:09;3.17;;;1.60;;
60612;SDS011;46443;59.792;17.626;2022-09-09T15:02:36;2.10;;;1.50;;
60612;SDS011;46443;59.792;17.626;2022-09-09T15:05:03;1.70;;;1.50;;
60612;SDS011;46443;59.792;17.626;2022-09-09T15:07:29;3.43;;;1.60;;
60612;SDS011;46443;59.792;17.626;2022-09-09T15:09:56;1.73;;;1.40;;
60612;SDS011;46443;59.792;17.626;2022-09-09T15:12:23;2.67;;;1.57;;
60612;SDS011;46443;59.792;17.626;2022-09-09T15:14:49;2.07;;;1.50;;
60612;SDS011;46443;59.792;17.626;2022-09-09T15:17:15;1.80;;;1.50;;
60612;SDS011;46443;59.792;17.626;2022-09-09T15:19:41;2.63;;;1.70;;
60612;SDS011;46443;59.792;17.626;2022-09-09T15:22:08;3.07;;;1.60;;
60612;SDS011;46443;59.792;17.626;2022-09-09T15:24:34;2.87;;;1.60;;
60612;SDS011;46443;59.792;17.626;2022-09-09T15:27:00;3.97;;;1.70;;
60612;SDS011;46443;59.792;17.626;2022-09-09T15:29:27;2.77;;;1.40;;
60612;SDS011;46443;59.792;17.626;2022-09-09T15:31:53;3.30;;;1.50;;
60612;SDS011;46443;59.792;17.626;2022-09-09T15:34:20;3.47;;;1.70;;
60612;SDS011;46443;59.792;17.626;2022-09-09T15:36:47;2.67;;;1.60;;
60612;SDS011;46443;59.792;17.626;2022-09-09T15:39:16;2.80;;;1.60;;
60612;SDS011;46443;59.792;17.626;2022-09-09T15:44:09;2.17;;;1.70;;
60612;SDS011;46443;59.792;17.626;2022-09-09T15:46:40;2.83;;;1.70;;
60612;SDS011;46443;59.792;17.626;2022-09-09T15:51:34;2.30;;;1.50;;
60612;SDS011;46443;59.792;17.626;2022-09-09T15:54:00;2.90;;;1.70;;
60612;SDS011;46443;59.792;17.626;2022-09-09T15:56:27;3.13;;;1.47;;
60612;SDS011;46443;59.792;17.626;2022-09-09T15:58:53;2.30;;;1.57;;
60612;SDS011;46443;59.792;17.626;2022-09-09T16:01:20;2.97;;;1.80;;
60612;SDS011;46443;59.792;17.626;2022-09-09T16:03:46;2.47;;;1.57;;
60612;SDS011;46443;59.792;17.626;2022-09-09T16:06:15;2.23;;;1.60;;
60612;SDS011;46443;59.792;17.626;2022-09-09T16:08:43;2.23;;;1.47;;
60612;SDS011;46443;59.792;17.626;2022-09-09T16:13:36;2.53;;;1.60;;
60612;SDS011;46443;59.792;17.626;2022-09-09T16:16:04;1.90;;;1.40;;
60612;SDS011;46443;59.792;17.626;2022-09-09T16:18:34;3.10;;;1.70;;
60612;SDS011;46443;59.792;17.626;2022-09-09T16:21:00;2.17;;;1.48;;
60612;SDS011;46443;59.792;17.626;2022-09-09T16:23:26;2.00;;;1.43;;
60612;SDS011;46443;59.792;17.626;2022-09-09T16:25:56;1.73;;;1.40;;
60612;SDS011;46443;59.792;17.626;2022-09-09T16:28:22;2.38;;;1.48;;
60612;SDS011;46443;59.792;17.626;2022-09-09T16:30:48;3.03;;;1.63;;
60612;SDS011;46443;59.792;17.626;2022-09-09T16:33:15;2.43;;;1.80;;
60612;SDS011;46443;59.792;17.626;2022-09-09T16:35:41;2.03;;;1.50;;
60612;SDS011;46443;59.792;17.626;2022-09-09T16:38:08;3.03;;;1.63;;
60612;SDS011;46443;59.792;17.626;2022-09-09T16:40:35;2.33;;;1.40;;